• Join FlightAware (Why Join?)
  • Login
  • US Flag 
12:04AM EST


 

Airport Tracker/Info


-or-


 

Live Flight TrackerFlight Track Log ✈ EJA829P ✈ 10-Nov-2013 ✈ KABE - KMCO

Flight Track Log - Related Links

Times and Time Zones

All times are in EST time to prevent confusion due to time zone crossing. See the EJA829P flight status page for this flight to view local times or setup timezone preferences in your user account.

Time Position Orientation Groundspeed Altitude Reporting Facility
EST Latitude Longitude Course Direction KTS MPH feet Rate Location/Type
04:31PM 40.6264 -75.4742 251° West 185 213 2,300  Level New York Center
04:32PM 40.6139 -75.5225 251° West 185 213 5,600 3,060 Climbing New York Center
04:33PM 40.5981 -75.6061 256° West 209 241 8,500 3,240 Climbing New York Center
04:34PM 40.5736 -75.6892 249° West 237 273 12,000 2,760 Climbing New York Center
04:35PM 40.5250 -75.7567 227° Southwest 250 288 14,000 1,980 Climbing New York Center
04:36PM 40.4808 -75.8189 227° Southwest 262 302 16,100 1,920 Climbing New York Center
04:37PM 40.4278 -75.8858 224° Southwest 267 307 17,900 900 Climbing New York Center
04:38PM 40.3722 -75.9636 227° Southwest 267 307 18,000 1,020 Climbing New York Center
04:39PM 40.3236 -76.0253 224° Southwest 267 307 20,000 2,160 Climbing New York Center
04:40PM 40.2708 -76.0919 224° Southwest 267 307 22,300 2,280 Climbing New York Center
04:41PM 40.2153 -76.1639 225° Southwest 272 313 24,600 1,920 Climbing New York Center
04:42PM 40.1542 -76.2269 218° Southwest 272 313 26,300 1,860 Climbing New York Center
04:43PM 40.0722 -76.2831 208° Southwest 308 354 28,300 2,160 Climbing New York Center
04:44PM 39.9925 -76.3364 207° Southwest 324 373 30,600 2,160 Climbing New York Center
04:45PM 39.8889 -76.3253 175° South 340 391 32,700 1,620 Climbing New York Center
04:46PM 39.7739 -76.2892 166° South 356 410 33,900 1,440 Climbing New York Center
04:47PM 39.6853 -76.3092 190° South 352 405 35,600 1,560 Climbing New York Center
04:48PM 39.5711 -76.4369 221° Southwest 305 351 38,300 1,380 Climbing Washington Center
04:49PM 39.5081 -76.5061 220° Southwest 305 351 39,400 840 Climbing Washington Center
04:50PM 39.4450 -76.5778 221° Southwest 305 351 40,000 300 Climbing Washington Center
04:51PM 39.3925 -76.6361 221° Southwest 305 351 40,000  Level Washington Center
04:52PM 39.3167 -76.7208 221° Southwest 318 366 40,000  Level Washington Center
04:53PM 39.2469 -76.8003 221° Southwest 332 382 40,000  Level Washington Center
04:54PM 39.1733 -76.8847 222° Southwest 344 396 40,000  Level Washington Center
04:55PM 39.0994 -76.9636 220° Southwest 349 402 40,000  Level Washington Center
04:56PM 39.0256 -77.0506 222° Southwest 349 402 40,000  Level Washington Center
04:57PM 38.9472 -77.1344 220° Southwest 354 407 40,000  Level Washington Center
04:58PM 38.8711 -77.2181 221° Southwest 361 415 40,000  Level Washington Center
04:59PM 38.7950 -77.2989 220° Southwest 361 415 40,000  Level Washington Center
05:00PM 38.7186 -77.3822 220° Southwest 361 415 40,000  Level Washington Center
05:01PM 38.6403 -77.4708 221° Southwest 361 415 40,000  Level Washington Center
05:02PM 38.5658 -77.5539 221° Southwest 361 415 40,000  Level Washington Center
05:03PM 38.4875 -77.6367 220° Southwest 361 415 40,000  Level Washington Center
05:04PM 38.4131 -77.7222 222° Southwest 361 415 40,000  Level Washington Center
05:05PM 38.3364 -77.8047 220° Southwest 366 421 40,000  Level Washington Center
05:06PM 38.2575 -77.8894 220° Southwest 366 421 40,000  Level Washington Center
05:07PM 38.1744 -77.9794 220° Southwest 366 421 40,000  Level Washington Center
05:08PM 38.0978 -78.0642 221° Southwest 366 421 40,000  Level Washington Center
05:09PM 38.0208 -78.1486 221° Southwest 366 421 40,000  Level Washington Center
05:10PM 37.9442 -78.2222 217° Southwest 366 421 40,000  Level Washington Center
05:11PM 37.8781 -78.2883 218° Southwest 366 421 40,000  Level Washington Center
05:12PM 37.7992 -78.3644 217° Southwest 366 421 40,000  Level Washington Center
05:13PM 37.6947 -78.4603 216° Southwest 378 435 40,000  Level Washington Center
05:14PM 37.6136 -78.5358 216° Southwest 373 429 40,000  Level Washington Center
05:15PM 37.5367 -78.6064 216° Southwest 373 429 40,000  Level Washington Center
05:16PM 37.4533 -78.6842 217° Southwest 373 429 40,000  Level Washington Center
05:17PM 37.3681 -78.7617 216° Southwest 373 429 40,000  Level Washington Center
05:18PM 37.2844 -78.8417 217° Southwest 373 429 40,000  Level Washington Center
05:19PM 37.1903 -78.9289 216° Southwest 378 435 40,000  Level Washington Center
05:20PM 37.1067 -79.0061 216° Southwest 378 435 40,000  Level Washington Center
05:21PM 37.0231 -79.0856 217° Southwest 378 435 40,000  Level Washington Center
05:22PM 36.9394 -79.1625 216° Southwest 378 435 40,000  Level Washington Center
05:23PM 36.8558 -79.2364 215° Southwest 372 428 40,000  Level Washington Center
05:24PM 36.7786 -79.3081 217° Southwest 372 428 40,000  Level Washington Center
05:25PM 36.6992 -79.3819 217° Southwest 372 428 40,000  Level Washington Center
05:26PM 36.6153 -79.4581 216° Southwest 372 428 40,000  Level Washington Center
05:27PM 36.5314 -79.5339 216° Southwest 372 428 40,000  Level Washington Center
05:29PM 36.3528 -79.6950 216° Southwest 373 429 40,000  Level Atlanta Center
05:30PM 36.2758 -79.7636 216° Southwest 373 429 40,000  Level Atlanta Center
05:31PM 36.1928 -79.8375 216° Southwest 373 429 40,000  Level Atlanta Center
05:32PM 36.1100 -79.9136 217° Southwest 373 429 40,000  Level Atlanta Center
05:33PM 36.0225 -79.9850 213° Southwest 373 429 40,000  Level Atlanta Center
05:34PM 35.9053 -80.0317 198° South 387 445 40,000  Level Atlanta Center
05:35PM 35.8000 -80.0678 196° South 394 453 40,000  Level Atlanta Center
05:36PM 35.6883 -80.1011 194° South 401 461 40,000  Level Atlanta Center
05:37PM 35.5814 -80.1422 197° South 406 467 40,000  Level Atlanta Center
05:38PM 35.4719 -80.1778 195° South 411 473 40,000  Level Atlanta Center
05:39PM 35.3664 -80.2108 194° South 411 473 40,000  Level Atlanta Center
05:40PM 35.2550 -80.2467 195° South 411 473 40,000  Level Atlanta Center
05:42PM 35.0511 -80.3114 195° South 412 474 40,000  Level Jacksonville Center
05:43PM 34.9436 -80.3475 195° South 412 474 40,000  Level Jacksonville Center
05:44PM 34.8336 -80.3836 195° South 412 474 40,000  Level Jacksonville Center
05:45PM 34.7383 -80.4117 194° South 412 474 40,000  Level Jacksonville Center
05:46PM 34.6306 -80.4450 194° South 412 474 40,000  Level Jacksonville Center
05:47PM 34.5206 -80.4808 195° South 412 474 40,000  Level Jacksonville Center
05:48PM 34.4108 -80.5167 195° South 412 474 40,000  Level Jacksonville Center
05:49PM 34.3028 -80.5497 194° South 412 474 40,000  Level Jacksonville Center
05:50PM 34.1972 -80.5828 195° South 412 474 40,000  Level Jacksonville Center
05:51PM 34.0892 -80.6133 193° South 407 468 40,000  Level Jacksonville Center
05:52PM 33.9725 -80.6264 185° South 413 475 40,000  Level Jacksonville Center
05:53PM 33.8581 -80.6367 184° South 418 481 40,000  Level Jacksonville Center
05:54PM 33.7289 -80.6500 185° South 424 488 40,000  Level Jacksonville Center
05:55PM 33.6164 -80.6653 186° South 424 488 40,000  Level Jacksonville Center
05:56PM 33.5039 -80.6783 186° South 419 482 40,000  Level Jacksonville Center
05:57PM 33.3872 -80.6886 184° South 419 482 40,000  Level Jacksonville Center
05:58PM 33.2728 -80.7039 186° South 424 488 40,000  Level Jacksonville Center
05:59PM 33.1561 -80.7167 185° South 424 488 40,000  Level Jacksonville Center
06:00PM 33.0372 -80.7294 185° South 424 488 40,000  Level Jacksonville Center
06:01PM 32.9206 -80.7419 185° South 424 488 40,000  Level Jacksonville Center
06:02PM 32.8039 -80.7522 184° South 424 488 40,000  Level Jacksonville Center
06:03PM 32.6872 -80.7625 184° South 424 488 40,000  Level Jacksonville Center
06:04PM 32.5706 -80.7750 185° South 415 478 40,000  Level Jacksonville Center
06:05PM 32.4539 -80.7900 186° South 422 486 40,000  Level Jacksonville Center
06:06PM 32.3539 -80.7997 185° South 417 480 40,000  Level Jacksonville Center
06:07PM 32.2247 -80.8125 185° South 423 487 40,000  Level Jacksonville Center
06:08PM 32.1078 -80.8250 185° South 423 487 40,000  Level Jacksonville Center
06:09PM 32.0017 -80.8347 184° South 423 487 40,000  Level Jacksonville Center
06:10PM 31.8767 -80.8497 186° South 423 487 40,000  Level Jacksonville Center
06:11PM 31.7597 -80.8622 185° South 416 479 40,000  Level Jacksonville Center
06:12PM 31.6536 -80.8717 184° South 421 484 40,000  Level Jacksonville Center
06:13PM 31.5286 -80.8867 186° South 421 484 40,000  Level Jacksonville Center
06:14PM 31.4139 -80.8964 184° South 421 484 40,000  Level Jacksonville Center
06:15PM 31.3097 -80.9083 186° South 427 491 40,000  Level Jacksonville Center
06:16PM 31.1950 -80.9206 185° South 427 491 40,000  Level Jacksonville Center
06:17PM 31.0783 -80.9328 185° South 427 491 40,000  Level Jacksonville Center
06:18PM 30.9636 -80.9447 185° South 422 486 40,000 -900 Level Jacksonville Center
06:19PM 30.8447 -80.9569 185° South 422 486 38,300 -1,980 Descending Jacksonville Center
06:20PM 30.7364 -80.9686 185° South 417 480 36,100 -2,100 Descending Jacksonville Center
06:21PM 30.6281 -80.9781 184° South 406 467 34,100 -1,080 Descending Jacksonville Center
06:22PM 30.5153 -80.9900 185° South 406 467 34,000 -300 Descending Jacksonville Center
06:23PM 30.3986 -81.0019 185° South 406 467 33,500 -1,200 Descending Jacksonville Center
06:24PM 30.2839 -81.0139 185° South 406 467 31,700 -1,800 Descending Jacksonville Center
06:25PM 30.1653 -81.0258 185° South 419 482 29,900 -1,860 Descending Jacksonville Center
06:26PM 30.0464 -81.0403 186° South 424 488 28,000 -1,860 Descending Jacksonville Center
06:27PM 29.9297 -81.0494 184° South 429 494 26,200 -1,800 Descending Jacksonville Center
06:28PM 29.8128 -81.0636 186° South 424 488 24,400 -1,800 Descending Jacksonville Center
06:29PM 29.7003 -81.0756 185° South 424 488 22,600 -1,800 Descending Jacksonville Center
06:30PM 29.5897 -81.0869 185° South 413 475 20,900 -1,680 Descending Jacksonville Center
06:31PM 29.4836 -81.0986 185° South 402 463 19,300 -1,680 Descending Jacksonville Center
06:32PM 29.3708 -81.1053 183° South 383 441 17,600 -1,680 Descending Jacksonville Center
06:33PM 29.2667 -81.1119 183° South 377 434 16,000 -1,620 Descending Jacksonville Center
06:34PM 29.1622 -81.1044 176° South 370 426 14,400 -1,620 Descending Jacksonville Center
06:35PM 29.0619 -81.0944 175° South 370 426 12,800 -1,200 Descending Jacksonville Center
06:36PM 28.9636 -81.0819 174° South 365 420 12,000 -600 Descending Jacksonville Center
06:37PM 28.8633 -81.0861 182° South 365 420 11,600 -900 Descending Jacksonville Center
06:38PM 28.7700 -81.1139 195° South 365 420 10,200 -1,320 Descending Jacksonville Center
06:39PM 28.6908 -81.1389 195° South 334 384 9,000 -600 Descending Jacksonville Center
06:40PM 28.6142 -81.1639 196° South 310 357 9,000  Level Jacksonville Center
06:41PM 28.5372 -81.1864 194° South 293 337 9,000  Level Jacksonville Center
06:42PM 28.4664 -81.1900 183° South 275 316 9,000 -840 Level Jacksonville Center
06:43PM 28.3975 -81.1889 179° South 256 295 7,400 -1,800 Descending Jacksonville Center
06:45PM 28.3167 -81.2167 197° South 241 277 5,000 -1,500 Descending Orlando TRACON
06:46PM 28.2833 -81.2667 233° Southwest 219 252 4,000 -1,080 Descending Orlando TRACON
06:47PM 28.2833 -81.3167 270° West 175 201 2,900 -1,140 Descending Orlando TRACON
06:48PM 28.3333 -81.3333 344° North 134 154 1,800 -900 Descending Orlando TRACON
06:49PM 28.3667 -81.3333 360° North 116 133 1,100 -600 Descending Orlando TRACON
06:50PM 28.3833 -81.3333 360° North 102 117 600 -540 Descending Orlando TRACON
06:52PM 28.4167 -81.3000 336° Northwest  Level FlightAware Approximate
06:59PM 28.4294 -81.3090 336° Northwest  Level Estimated
07:00PM 28.4294 -81.3090 336° Northwest  Level Estimated
07:01PM 28.4294 -81.3090 336° Northwest  Level Estimated